createdAt,value
2019-03-23T00:00:24.346Z,8.03
2019-03-23T00:00:55.547Z,8.05
2019-03-23T00:01:26.851Z,8.05
2019-03-23T00:01:58.077Z,8.02
2019-03-23T00:02:29.302Z,8.02
2019-03-23T00:03:00.510Z,8.00
2019-03-23T00:03:31.715Z,7.97
2019-03-23T00:04:02.940Z,7.94
2019-03-23T00:04:34.176Z,7.91
2019-03-23T00:05:05.403Z,7.89
2019-03-23T00:05:36.621Z,7.87
2019-03-23T00:06:07.877Z,7.86
2019-03-23T00:06:39.093Z,7.85
2019-03-23T00:07:10.299Z,7.82
2019-03-23T00:07:41.508Z,7.80
2019-03-23T00:08:12.722Z,7.78
2019-03-23T00:08:43.934Z,7.77
2019-03-23T00:09:15.165Z,7.74
2019-03-23T00:09:46.373Z,7.73
2019-03-23T00:10:17.577Z,7.74
2019-03-23T00:10:48.818Z,7.74
2019-03-23T00:11:20.065Z,7.73
2019-03-23T00:11:51.280Z,7.73
2019-03-23T00:12:22.485Z,7.74
2019-03-23T00:12:53.692Z,7.74
2019-03-23T00:13:24.909Z,7.75
2019-03-23T00:13:56.097Z,7.76
2019-03-23T00:14:27.311Z,7.78
2019-03-23T00:14:58.513Z,7.79
2019-03-23T00:15:30.657Z,7.81
2019-03-23T00:16:01.879Z,7.84
2019-03-23T00:16:33.131Z,7.86
2019-03-23T00:17:04.378Z,7.89
2019-03-23T00:17:35.651Z,7.92
2019-03-23T00:18:06.863Z,7.95
2019-03-23T00:18:38.079Z,7.98
2019-03-23T00:19:09.294Z,8.02
2019-03-23T00:19:40.515Z,8.04
2019-03-23T00:20:11.878Z,8.07
2019-03-23T00:20:43.085Z,8.08
2019-03-23T00:21:14.341Z,8.11
2019-03-23T00:21:45.613Z,8.12
2019-03-23T00:22:16.827Z,8.13
2019-03-23T00:22:48.033Z,8.14
2019-03-23T00:23:19.243Z,8.16
2019-03-23T00:23:50.455Z,8.17
2019-03-23T00:24:21.673Z,8.17
2019-03-23T00:24:52.882Z,8.18
2019-03-23T00:25:24.071Z,8.19
2019-03-23T00:25:55.275Z,8.21
2019-03-23T00:26:26.471Z,8.22
2019-03-23T00:26:57.713Z,8.23
2019-03-23T00:27:28.918Z,8.23
2019-03-23T00:28:00.151Z,8.23
2019-03-23T00:28:31.366Z,8.21
2019-03-23T00:29:02.575Z,8.22
2019-03-23T00:29:33.779Z,8.25
2019-03-23T00:30:05.042Z,8.25
2019-03-23T00:30:36.249Z,8.26
2019-03-23T00:31:07.458Z,8.29
2019-03-23T00:31:38.672Z,8.30
2019-03-23T00:32:09.887Z,8.32
2019-03-23T00:32:41.132Z,8.31
2019-03-23T00:33:12.353Z,8.33
2019-03-23T00:33:43.542Z,8.36
2019-03-23T00:34:14.749Z,8.35
2019-03-23T00:34:46.000Z,8.36
2019-03-23T00:35:17.220Z,8.38
2019-03-23T00:35:48.429Z,8.41
2019-03-23T00:36:19.684Z,8.42
2019-03-23T00:36:50.892Z,8.43
2019-03-23T00:37:22.090Z,8.44
2019-03-23T00:37:53.308Z,8.45
2019-03-23T00:38:24.565Z,8.46
2019-03-23T00:38:55.770Z,8.44
2019-03-23T00:39:27.023Z,8.41
2019-03-23T00:39:58.247Z,8.41
2019-03-23T00:40:29.452Z,8.41
2019-03-23T00:41:00.722Z,8.42
2019-03-23T00:41:31.929Z,8.43
2019-03-23T00:42:03.135Z,8.45
2019-03-23T00:42:34.337Z,8.46
2019-03-23T00:43:05.554Z,8.47
2019-03-23T00:43:36.757Z,8.48
2019-03-23T00:44:07.960Z,8.48
2019-03-23T00:44:39.168Z,8.49
2019-03-23T00:45:10.374Z,8.49
2019-03-23T00:45:41.613Z,8.48
2019-03-23T00:46:12.866Z,8.49
2019-03-23T00:46:44.106Z,8.50
2019-03-23T00:47:15.310Z,8.52
2019-03-23T00:47:46.510Z,8.53
2019-03-23T00:48:17.715Z,8.55
2019-03-23T00:48:48.953Z,8.54
2019-03-23T00:49:20.166Z,8.53
2019-03-23T00:49:51.372Z,8.55
2019-03-23T00:50:22.570Z,8.59
2019-03-23T00:50:53.772Z,8.61
2019-03-23T00:51:25.038Z,8.63
2019-03-23T00:51:56.246Z,8.60
2019-03-23T00:52:27.457Z,8.64
2019-03-23T00:52:58.665Z,8.68
2019-03-23T00:53:29.868Z,8.75
2019-03-23T00:54:01.088Z,8.77
2019-03-23T00:54:32.286Z,8.80
2019-03-23T00:55:03.488Z,8.82
2019-03-23T00:55:34.701Z,8.85
2019-03-23T00:56:05.934Z,8.85
2019-03-23T00:56:37.184Z,8.86
2019-03-23T00:57:08.381Z,8.87
2019-03-23T00:57:39.581Z,8.86
2019-03-23T00:58:10.791Z,8.86
2019-03-23T00:58:42.119Z,8.86
2019-03-23T00:59:13.380Z,8.88
2019-03-23T00:59:44.580Z,8.89
2019-03-23T01:00:15.785Z,8.89
2019-03-23T01:00:46.990Z,8.89
2019-03-23T01:01:18.197Z,8.91
2019-03-23T01:01:49.406Z,8.89
2019-03-23T01:02:20.614Z,8.90
2019-03-23T01:02:51.812Z,8.89
2019-03-23T01:03:23.012Z,8.87
2019-03-23T01:03:54.238Z,8.86
2019-03-23T01:04:25.499Z,8.83
2019-03-23T01:04:56.689Z,8.82
2019-03-23T01:05:27.936Z,8.80
2019-03-23T01:05:59.136Z,8.79
2019-03-23T01:06:30.339Z,8.81
2019-03-23T01:07:01.535Z,8.82
2019-03-23T01:07:32.751Z,8.80
2019-03-23T01:08:03.970Z,8.78
2019-03-23T01:08:35.168Z,8.78
2019-03-23T01:09:06.380Z,8.79
2019-03-23T01:09:37.642Z,8.77
2019-03-23T01:10:08.854Z,8.77
2019-03-23T01:10:40.055Z,8.80
2019-03-23T01:11:11.257Z,8.80
2019-03-23T01:11:42.460Z,8.80
2019-03-23T01:12:13.655Z,8.80
2019-03-23T01:12:44.854Z,8.78
2019-03-23T01:13:16.050Z,8.78
2019-03-23T01:13:47.253Z,8.78
2019-03-23T01:14:18.593Z,8.79
2019-03-23T01:14:49.804Z,8.75
2019-03-23T01:15:21.005Z,8.74
2019-03-23T01:15:52.235Z,8.73
2019-03-23T01:16:23.421Z,8.72
2019-03-23T01:16:54.630Z,8.68
2019-03-23T01:17:25.833Z,8.65
2019-03-23T01:17:57.043Z,8.60
2019-03-23T01:18:28.241Z,8.58
2019-03-23T01:18:59.506Z,8.54
2019-03-23T01:19:30.711Z,8.53
2019-03-23T01:20:01.921Z,8.51
2019-03-23T01:20:33.117Z,8.49
2019-03-23T01:21:04.365Z,8.50
2019-03-23T01:21:35.612Z,8.50
2019-03-23T01:22:06.825Z,8.53
2019-03-23T01:22:38.035Z,8.56
2019-03-23T01:23:09.239Z,8.59
2019-03-23T01:23:40.456Z,8.62
2019-03-23T01:24:11.673Z,8.66
2019-03-23T01:24:42.879Z,8.71
2019-03-23T01:25:14.128Z,8.78
2019-03-23T01:25:45.345Z,8.90
2019-03-23T01:26:16.608Z,8.93
2019-03-23T01:26:47.840Z,8.96
2019-03-23T01:27:19.049Z,9.01
2019-03-23T01:27:50.259Z,9.03
2019-03-23T01:28:21.467Z,9.05
2019-03-23T01:28:52.677Z,9.02
2019-03-23T01:29:23.887Z,9.03
2019-03-23T01:29:55.079Z,9.01
2019-03-23T01:30:26.330Z,8.97
2019-03-23T01:30:57.539Z,8.96
2019-03-23T01:31:28.748Z,8.97
2019-03-23T01:31:59.959Z,8.99
2019-03-23T01:32:31.173Z,9.01
2019-03-23T01:33:02.386Z,9.00
2019-03-23T01:33:33.588Z,8.98
2019-03-23T01:34:04.798Z,8.92
2019-03-23T01:34:36.005Z,8.95
2019-03-23T01:35:07.207Z,8.92
2019-03-23T01:35:38.286Z,8.90
2019-03-23T01:36:09.494Z,8.88
2019-03-23T01:36:40.710Z,8.87
2019-03-23T01:37:11.928Z,8.84
2019-03-23T01:37:43.135Z,8.82
2019-03-23T01:38:14.333Z,8.83
2019-03-23T01:38:45.538Z,8.81
2019-03-23T01:39:16.758Z,8.79
2019-03-23T01:39:47.983Z,8.74
2019-03-23T01:40:19.192Z,8.74
2019-03-23T01:40:50.452Z,8.72
2019-03-23T01:41:21.655Z,8.72
2019-03-23T01:41:52.883Z,8.70
2019-03-23T01:42:24.085Z,8.67
2019-03-23T01:42:55.305Z,8.63
2019-03-23T01:43:26.511Z,8.59
2019-03-23T01:43:57.710Z,8.57
2019-03-23T01:44:28.917Z,8.56
2019-03-23T01:45:00.316Z,8.59
2019-03-23T01:45:31.562Z,8.57
2019-03-23T01:46:02.810Z,8.53
2019-03-23T01:46:34.060Z,8.50
2019-03-23T01:47:05.266Z,8.48
2019-03-23T01:47:36.503Z,8.46
2019-03-23T01:48:07.722Z,8.41
2019-03-23T01:48:39.327Z,8.39
2019-03-23T01:49:10.574Z,8.36
2019-03-23T01:49:41.760Z,8.34
2019-03-23T01:50:12.971Z,8.32
2019-03-23T01:50:44.166Z,8.28
2019-03-23T01:51:15.365Z,8.25
2019-03-23T01:51:46.612Z,8.24
2019-03-23T01:52:17.817Z,8.22
2019-03-23T01:52:49.037Z,8.22
2019-03-23T01:53:20.244Z,8.20
2019-03-23T01:53:51.455Z,8.18
2019-03-23T01:54:22.651Z,8.15
2019-03-23T01:54:53.844Z,8.13
2019-03-23T01:55:25.042Z,8.12
2019-03-23T01:55:56.254Z,8.13
2019-03-23T01:56:27.519Z,8.13
2019-03-23T01:56:58.723Z,8.13
2019-03-23T01:57:29.936Z,8.11
2019-03-23T01:58:01.160Z,8.10
2019-03-23T01:58:32.383Z,8.07
2019-03-23T01:59:03.594Z,8.07
2019-03-23T01:59:34.834Z,8.03
2019-03-23T02:00:06.074Z,8.00
2019-03-23T02:00:37.284Z,7.96
2019-03-23T02:01:08.499Z,7.92
2019-03-23T02:01:39.700Z,7.89
2019-03-23T02:02:10.894Z,7.87
2019-03-23T02:02:42.113Z,7.86
2019-03-23T02:03:13.316Z,7.84
2019-03-23T02:03:44.523Z,7.86
2019-03-23T02:04:15.739Z,7.85
2019-03-23T02:04:47.027Z,7.83
2019-03-23T02:05:18.228Z,7.81
2019-03-23T02:05:49.419Z,7.77
2019-03-23T02:06:20.666Z,7.76
2019-03-23T02:06:51.878Z,7.77
2019-03-23T02:07:23.087Z,7.73
2019-03-23T02:07:54.296Z,7.71
2019-03-23T02:08:25.509Z,7.70
2019-03-23T02:08:56.708Z,7.70
2019-03-23T02:09:27.906Z,7.70
2019-03-23T02:09:59.140Z,7.72
2019-03-23T02:10:30.399Z,7.75
2019-03-23T02:11:01.601Z,7.76
2019-03-23T02:11:32.863Z,7.76
2019-03-23T02:12:04.079Z,7.78
2019-03-23T02:12:35.304Z,7.78
2019-03-23T02:13:06.515Z,7.79
2019-03-23T02:13:37.724Z,7.78
2019-03-23T02:14:08.987Z,7.75
2019-03-23T02:14:40.165Z,7.72
2019-03-23T02:15:11.386Z,7.72
2019-03-23T02:15:42.629Z,7.73
2019-03-23T02:16:13.835Z,7.74
2019-03-23T02:16:45.039Z,7.74
2019-03-23T02:17:16.278Z,7.75
2019-03-23T02:17:47.477Z,7.75
2019-03-23T02:18:18.688Z,7.78
2019-03-23T02:18:49.890Z,7.80
2019-03-23T02:19:21.096Z,7.85
2019-03-23T02:19:52.344Z,7.86
2019-03-23T02:20:23.535Z,7.87
2019-03-23T02:20:54.771Z,7.89
2019-03-23T02:21:25.973Z,7.90
2019-03-23T02:21:57.175Z,7.90
2019-03-23T02:22:28.445Z,7.93
2019-03-23T02:22:59.663Z,7.95
2019-03-23T02:23:30.871Z,7.96
2019-03-23T02:24:02.074Z,7.98
2019-03-23T02:24:33.274Z,8.01
2019-03-23T02:25:04.493Z,7.99
2019-03-23T02:25:35.696Z,8.00
2019-03-23T02:26:06.900Z,8.01
2019-03-23T02:26:38.139Z,8.01
2019-03-23T02:27:09.307Z,8.02
2019-03-23T02:27:40.551Z,8.01
2019-03-23T02:28:11.752Z,8.01
2019-03-23T02:28:42.970Z,8.01
2019-03-23T02:29:14.226Z,8.01
2019-03-23T02:29:45.415Z,8.00
2019-03-23T02:30:16.640Z,8.01
2019-03-23T02:30:47.843Z,8.00
2019-03-23T02:31:19.041Z,8.00
2019-03-23T02:31:50.244Z,8.00
2019-03-23T02:32:21.473Z,8.01
2019-03-23T02:32:52.682Z,8.00
2019-03-23T02:33:23.894Z,8.00
2019-03-23T02:33:55.097Z,7.99
2019-03-23T02:34:26.333Z,7.97
2019-03-23T02:34:57.534Z,7.97
2019-03-23T02:35:28.762Z,7.95
2019-03-23T02:35:59.986Z,7.94
2019-03-23T02:36:31.204Z,7.94
2019-03-23T02:37:02.406Z,7.94
2019-03-23T02:37:33.589Z,7.94
2019-03-23T02:38:04.798Z,7.93
2019-03-23T02:38:36.005Z,7.94
2019-03-23T02:39:07.248Z,7.93
2019-03-23T02:39:38.466Z,7.92
2019-03-23T02:40:09.680Z,7.91
2019-03-23T02:40:40.889Z,7.92
2019-03-23T02:41:12.094Z,7.90
2019-03-23T02:41:43.338Z,7.89
2019-03-23T02:42:14.547Z,7.89
2019-03-23T02:42:45.769Z,7.90
2019-03-23T02:43:16.976Z,7.90
2019-03-23T02:43:48.173Z,7.92
2019-03-23T02:44:19.396Z,7.91
2019-03-23T02:44:50.612Z,7.90
2019-03-23T02:45:21.899Z,7.89
2019-03-23T02:45:54.203Z,7.88
2019-03-23T02:46:25.418Z,7.90
2019-03-23T02:46:56.640Z,7.92
2019-03-23T02:47:27.850Z,7.95
2019-03-23T02:47:59.085Z,7.98
2019-03-23T02:48:30.336Z,7.99
2019-03-23T02:49:01.542Z,8.00
2019-03-23T02:49:32.741Z,8.01
2019-03-23T02:50:03.955Z,8.01
2019-03-23T02:50:35.159Z,8.01
2019-03-23T02:51:06.363Z,8.00
2019-03-23T02:51:39.748Z,7.99
2019-03-23T02:52:10.501Z,7.99
2019-03-23T02:52:41.708Z,7.98
2019-03-23T02:53:12.904Z,7.98
2019-03-23T02:53:44.163Z,7.97
2019-03-23T02:54:15.394Z,7.96
2019-03-23T02:54:46.663Z,7.95
2019-03-23T02:55:17.865Z,7.94
2019-03-23T02:55:49.057Z,7.92
2019-03-23T02:56:20.260Z,7.91
2019-03-23T02:56:51.470Z,7.91
2019-03-23T02:57:22.684Z,7.90
2019-03-23T02:57:53.946Z,7.90
2019-03-23T02:58:25.157Z,7.89
2019-03-23T02:58:56.347Z,7.91
2019-03-23T02:59:27.586Z,7.91
2019-03-23T02:59:58.795Z,7.92
2019-03-23T03:00:29.992Z,7.92
2019-03-23T03:01:01.219Z,7.91
2019-03-23T03:01:32.421Z,7.91
2019-03-23T03:02:03.669Z,7.90
2019-03-23T03:02:34.898Z,7.89
2019-03-23T03:03:06.114Z,7.88
2019-03-23T03:03:37.315Z,7.86
2019-03-23T03:04:08.598Z,7.84
2019-03-23T03:04:39.804Z,7.82
2019-03-23T03:05:11.011Z,7.79
2019-03-23T03:05:42.246Z,7.76
2019-03-23T03:06:13.453Z,7.74
2019-03-23T03:06:44.724Z,7.74
2019-03-23T03:07:15.934Z,7.74
2019-03-23T03:07:47.154Z,7.72
2019-03-23T03:08:18.349Z,7.73
2019-03-23T03:08:49.559Z,7.73
2019-03-23T03:09:20.781Z,7.70
2019-03-23T03:09:52.047Z,7.65
2019-03-23T03:10:23.270Z,7.61
2019-03-23T03:10:54.466Z,7.55
2019-03-23T03:11:25.662Z,7.53
2019-03-23T03:11:56.899Z,7.51
2019-03-23T03:12:28.067Z,7.48
2019-03-23T03:12:59.261Z,7.44
2019-03-23T03:13:30.498Z,7.37
2019-03-23T03:14:01.686Z,7.35
2019-03-23T03:14:32.899Z,7.31
2019-03-23T03:15:04.135Z,7.25
2019-03-23T03:15:35.359Z,7.20
2019-03-23T03:16:06.552Z,7.19
2019-03-23T03:16:37.837Z,7.23
2019-03-23T03:17:09.051Z,7.29
2019-03-23T03:17:40.274Z,7.35
2019-03-23T03:18:11.481Z,7.39
2019-03-23T03:18:42.698Z,7.42
2019-03-23T03:19:13.938Z,7.42
2019-03-23T03:19:45.147Z,7.39
2019-03-23T03:20:16.344Z,7.37
2019-03-23T03:20:47.553Z,7.32
2019-03-23T03:21:18.752Z,7.28
2019-03-23T03:21:49.957Z,7.26
2019-03-23T03:22:21.162Z,7.26
2019-03-23T03:22:52.364Z,7.29
2019-03-23T03:23:23.599Z,7.28
2019-03-23T03:23:54.845Z,7.30
2019-03-23T03:24:26.087Z,7.32
2019-03-23T03:24:57.335Z,7.36
2019-03-23T03:25:28.546Z,7.37
2019-03-23T03:25:59.757Z,7.37
2019-03-23T03:26:30.976Z,7.37
2019-03-23T03:27:02.177Z,7.36
2019-03-23T03:27:33.393Z,7.36
2019-03-23T03:28:04.598Z,7.37
2019-03-23T03:28:35.847Z,7.36
2019-03-23T03:29:07.051Z,7.36
2019-03-23T03:29:38.270Z,7.38
2019-03-23T03:30:09.465Z,7.36
2019-03-23T03:30:40.670Z,7.31
2019-03-23T03:31:11.905Z,7.29
2019-03-23T03:31:43.139Z,7.27
2019-03-23T03:32:14.360Z,7.23
2019-03-23T03:32:45.843Z,7.21
2019-03-23T03:33:17.038Z,7.19
2019-03-23T03:33:48.290Z,7.16
2019-03-23T03:34:19.526Z,7.15
2019-03-23T03:34:50.755Z,7.12
2019-03-23T03:35:22.013Z,7.10
2019-03-23T03:35:53.204Z,7.08
2019-03-23T03:36:24.479Z,7.05
2019-03-23T03:36:55.662Z,7.01
2019-03-23T03:37:26.880Z,6.98
2019-03-23T03:37:58.100Z,6.96
2019-03-23T03:38:29.298Z,6.94
2019-03-23T03:39:00.563Z,6.93
2019-03-23T03:39:31.799Z,6.92
2019-03-23T03:40:03.038Z,6.90
2019-03-23T03:40:34.254Z,6.88
2019-03-23T03:41:05.473Z,6.88
2019-03-23T03:41:36.676Z,6.88
2019-03-23T03:42:07.919Z,6.86
2019-03-23T03:42:39.121Z,6.86
2019-03-23T03:43:10.352Z,6.88
2019-03-23T03:43:41.572Z,6.88
2019-03-23T03:44:12.770Z,6.89
2019-03-23T03:44:44.010Z,6.93
2019-03-23T03:45:15.214Z,6.94
2019-03-23T03:45:46.417Z,6.95
2019-03-23T03:46:17.642Z,6.98
2019-03-23T03:46:48.883Z,7.00
2019-03-23T03:47:20.140Z,6.96
2019-03-23T03:47:51.343Z,6.95
2019-03-23T03:48:22.555Z,6.95
2019-03-23T03:48:53.758Z,6.93
2019-03-23T03:49:24.974Z,6.89
2019-03-23T03:49:56.163Z,6.83
2019-03-23T03:50:27.417Z,6.82
2019-03-23T03:50:58.638Z,6.81
2019-03-23T03:51:29.843Z,6.78
2019-03-23T03:52:01.049Z,6.74
2019-03-23T03:52:32.262Z,6.67
2019-03-23T03:53:03.488Z,6.65
2019-03-23T03:53:34.742Z,6.62
2019-03-23T03:54:05.965Z,6.58
2019-03-23T03:54:37.167Z,6.52
2019-03-23T03:55:08.385Z,6.45
2019-03-23T03:55:39.587Z,6.38
2019-03-23T03:56:10.803Z,6.40
2019-03-23T03:56:42.016Z,6.39
2019-03-23T03:57:13.241Z,6.44
2019-03-23T03:57:44.478Z,6.50
2019-03-23T03:58:15.676Z,6.51
2019-03-23T03:58:47.061Z,6.45
2019-03-23T03:59:18.281Z,6.45
2019-03-23T03:59:50.460Z,6.47
2019-03-23T04:00:21.681Z,6.48
2019-03-23T04:00:52.889Z,6.45
2019-03-23T04:01:24.102Z,6.44
2019-03-23T04:01:55.313Z,6.40
2019-03-23T04:02:26.575Z,6.43
2019-03-23T04:02:57.786Z,6.42
2019-03-23T04:03:28.985Z,6.35
2019-03-23T04:04:00.196Z,6.40
2019-03-23T04:04:31.406Z,6.40
2019-03-23T04:05:02.605Z,6.38
2019-03-23T04:05:33.809Z,6.36
2019-03-23T04:06:05.007Z,6.33
2019-03-23T04:06:36.215Z,6.34
2019-03-23T04:07:07.419Z,6.32
2019-03-23T04:07:38.661Z,6.25
2019-03-23T04:08:11.941Z,6.28
2019-03-23T04:08:42.799Z,6.24
2019-03-23T04:09:14.001Z,6.29
2019-03-23T04:09:45.218Z,6.27
2019-03-23T04:10:16.441Z,6.33
2019-03-23T04:10:47.646Z,6.32
2019-03-23T04:11:18.885Z,6.38
2019-03-23T04:11:50.089Z,6.42
2019-03-23T04:12:21.305Z,6.47
2019-03-23T04:12:52.489Z,6.49
2019-03-23T04:13:23.708Z,6.46
2019-03-23T04:13:54.943Z,6.50
2019-03-23T04:14:26.157Z,6.45
2019-03-23T04:14:57.347Z,6.39
2019-03-23T04:15:28.554Z,6.40
2019-03-23T04:15:59.757Z,6.44
2019-03-23T04:16:30.999Z,6.43
2019-03-23T04:17:02.187Z,6.39
2019-03-23T04:17:33.406Z,6.40
2019-03-23T04:18:04.616Z,6.39
2019-03-23T04:18:35.881Z,6.39
2019-03-23T04:19:07.091Z,6.37
2019-03-23T04:19:38.296Z,6.37
2019-03-23T04:20:09.544Z,6.35
2019-03-23T04:20:40.787Z,6.28
2019-03-23T04:21:12.000Z,6.13
2019-03-23T04:21:43.199Z,6.04
2019-03-23T04:22:14.406Z,6.04
2019-03-23T04:22:45.640Z,6.01
2019-03-23T04:23:16.839Z,5.96
2019-03-23T04:23:48.055Z,5.95
2019-03-23T04:24:19.282Z,5.89
2019-03-23T04:24:50.462Z,5.84
2019-03-23T04:25:21.694Z,5.81
2019-03-23T04:25:52.932Z,5.79
2019-03-23T04:26:24.142Z,5.78
2019-03-23T04:26:55.387Z,5.74
2019-03-23T04:27:26.574Z,5.71
2019-03-23T04:27:57.791Z,5.75
2019-03-23T04:28:28.980Z,5.76
2019-03-23T04:29:00.202Z,5.75
2019-03-23T04:29:31.393Z,5.76
2019-03-23T04:30:02.597Z,5.75
2019-03-23T04:30:33.982Z,5.81
2019-03-23T04:31:05.227Z,5.83
2019-03-23T04:31:36.449Z,5.86
2019-03-23T04:32:07.653Z,5.86
2019-03-23T04:32:38.897Z,5.87
2019-03-23T04:33:10.108Z,5.91
2019-03-23T04:33:41.307Z,5.96
2019-03-23T04:34:12.513Z,6.00
2019-03-23T04:34:43.711Z,6.03
2019-03-23T04:35:14.927Z,6.07
2019-03-23T04:35:46.139Z,6.07
2019-03-23T04:36:17.341Z,6.06
2019-03-23T04:36:48.542Z,6.07
2019-03-23T04:37:19.756Z,6.07
2019-03-23T04:37:51.016Z,6.05
2019-03-23T04:38:23.310Z,6.04
2019-03-23T04:38:54.723Z,6.01
2019-03-23T04:39:25.929Z,5.93
2019-03-23T04:39:57.130Z,5.93
2019-03-23T04:40:28.328Z,5.99
2019-03-23T04:40:59.535Z,6.01
2019-03-23T04:41:30.801Z,6.03
2019-03-23T04:42:01.994Z,6.06
2019-03-23T04:42:33.222Z,6.07
2019-03-23T04:43:04.433Z,6.11
2019-03-23T04:43:35.687Z,6.15
2019-03-23T04:44:06.886Z,6.22
2019-03-23T04:44:38.097Z,6.26
2019-03-23T04:45:09.309Z,6.30
2019-03-23T04:45:40.587Z,6.35
2019-03-23T04:46:11.810Z,6.43
2019-03-23T04:46:43.983Z,6.50
2019-03-23T04:47:15.364Z,6.57
2019-03-23T04:47:47.059Z,6.66
2019-03-23T04:48:18.329Z,6.74
2019-03-23T04:48:49.602Z,6.77
2019-03-23T04:49:20.818Z,6.85
2019-03-23T04:49:52.043Z,6.94
2019-03-23T04:50:23.240Z,7.05
2019-03-23T04:50:54.445Z,7.17
2019-03-23T04:51:25.662Z,7.28
2019-03-23T04:51:56.861Z,7.37
2019-03-23T04:52:28.108Z,7.48
2019-03-23T04:52:59.320Z,7.60
2019-03-23T04:53:30.544Z,7.74
2019-03-23T04:54:01.747Z,7.88
2019-03-23T04:54:32.955Z,8.01
2019-03-23T04:55:04.170Z,8.12
2019-03-23T04:55:35.378Z,8.21
2019-03-23T04:56:06.572Z,8.33
2019-03-23T04:56:37.775Z,8.41
2019-03-23T04:57:09.991Z,8.46
2019-03-23T04:57:41.228Z,8.51
2019-03-23T04:58:12.437Z,8.58
2019-03-23T04:58:43.634Z,8.59
2019-03-23T04:59:14.843Z,8.68
2019-03-23T04:59:46.065Z,8.79
2019-03-23T05:00:17.278Z,8.89
2019-03-23T05:00:48.528Z,8.96
2019-03-23T05:01:19.739Z,9.06
2019-03-23T05:01:50.939Z,9.19
2019-03-23T05:02:22.237Z,9.27
2019-03-23T05:02:53.437Z,9.40
2019-03-23T05:03:24.653Z,9.48
2019-03-23T05:03:55.910Z,9.55
2019-03-23T05:04:27.104Z,9.59
2019-03-23T05:04:58.369Z,9.52
2019-03-23T05:05:29.569Z,9.48
2019-03-23T05:06:00.772Z,9.47
2019-03-23T05:06:32.031Z,9.45
2019-03-23T05:07:03.232Z,9.46
2019-03-23T05:07:34.471Z,9.44
2019-03-23T05:08:05.690Z,9.48
2019-03-23T05:08:36.912Z,9.53
2019-03-23T05:09:08.122Z,9.61
2019-03-23T05:09:39.323Z,9.69
2019-03-23T05:10:10.516Z,9.71
2019-03-23T05:10:41.722Z,9.72
2019-03-23T05:11:12.966Z,9.70
2019-03-23T05:11:44.169Z,9.67
2019-03-23T05:12:15.365Z,9.65
2019-03-23T05:12:46.570Z,9.60
2019-03-23T05:13:17.769Z,9.60
2019-03-23T05:13:49.010Z,9.61
2019-03-23T05:14:20.208Z,9.65
2019-03-23T05:14:51.450Z,9.71
2019-03-23T05:15:22.665Z,9.78
2019-03-23T05:15:53.854Z,9.84
2019-03-23T05:16:25.057Z,9.80
2019-03-23T05:16:56.261Z,9.79
2019-03-23T05:17:27.461Z,9.81
2019-03-23T05:17:58.670Z,9.78
2019-03-23T05:18:29.866Z,9.82
2019-03-23T05:19:01.119Z,9.85
2019-03-23T05:19:32.332Z,9.84
2019-03-23T05:20:03.529Z,9.81
2019-03-23T05:20:34.737Z,9.81
2019-03-23T05:21:06.096Z,9.81
2019-03-23T05:21:37.321Z,9.78
2019-03-23T05:22:08.539Z,9.76
2019-03-23T05:22:39.941Z,9.75
2019-03-23T05:23:11.149Z,9.76
2019-03-23T05:23:42.215Z,9.71
2019-03-23T05:24:13.437Z,9.64
2019-03-23T05:24:44.642Z,9.56
2019-03-23T05:25:15.870Z,9.54
2019-03-23T05:25:47.074Z,9.53
2019-03-23T05:26:18.270Z,9.49
2019-03-23T05:26:49.478Z,9.52
2019-03-23T05:27:20.675Z,9.57
2019-03-23T05:27:51.938Z,9.65
2019-03-23T05:28:23.150Z,9.68
2019-03-23T05:28:54.363Z,9.73
2019-03-23T05:29:25.574Z,9.74
2019-03-23T05:29:56.773Z,9.74
2019-03-23T05:30:27.991Z,9.72
2019-03-23T05:30:59.233Z,9.73
2019-03-23T05:31:30.434Z,9.72
2019-03-23T05:32:01.642Z,9.75
2019-03-23T05:32:32.860Z,9.73
2019-03-23T05:33:04.056Z,9.71
2019-03-23T05:33:35.273Z,9.74
2019-03-23T05:34:06.490Z,9.69
2019-03-23T05:34:37.692Z,9.70
2019-03-23T05:35:08.901Z,9.65
2019-03-23T05:35:40.111Z,9.65
2019-03-23T05:36:11.380Z,9.64
2019-03-23T05:36:42.584Z,9.66
2019-03-23T05:37:13.788Z,9.64
2019-03-23T05:37:44.986Z,9.63
2019-03-23T05:38:16.185Z,9.60
2019-03-23T05:38:47.391Z,9.55
2019-03-23T05:39:18.595Z,9.52
2019-03-23T05:39:49.802Z,9.54
2019-03-23T05:40:21.056Z,9.56
2019-03-23T05:40:52.268Z,9.56
2019-03-23T05:41:23.478Z,9.60
2019-03-23T05:41:54.670Z,9.64
2019-03-23T05:42:25.884Z,9.62
2019-03-23T05:42:57.128Z,9.64
2019-03-23T05:43:28.366Z,9.66
2019-03-23T05:43:59.589Z,9.71
2019-03-23T05:44:30.843Z,9.74
2019-03-23T05:45:02.046Z,9.77
2019-03-23T05:45:33.348Z,9.83
2019-03-23T05:46:04.529Z,9.86
2019-03-23T05:46:35.738Z,9.91
2019-03-23T05:47:06.936Z,9.95
2019-03-23T05:47:38.148Z,10.00
2019-03-23T05:48:09.383Z,10.08
2019-03-23T05:48:40.599Z,10.18
2019-03-23T05:49:11.880Z,10.26
2019-03-23T05:49:43.139Z,10.34
2019-03-23T05:50:14.346Z,10.46
2019-03-23T05:50:45.611Z,10.51
2019-03-23T05:51:16.809Z,10.54
2019-03-23T05:51:48.009Z,10.54
2019-03-23T05:52:19.221Z,10.59
2019-03-23T05:52:50.611Z,10.61
2019-03-23T05:53:21.831Z,10.66
2019-03-23T05:53:53.032Z,10.67
2019-03-23T05:54:24.244Z,10.64
2019-03-23T05:54:55.461Z,10.72
2019-03-23T05:55:26.707Z,10.71
2019-03-23T05:55:57.961Z,10.76
2019-03-23T05:56:29.168Z,10.80
2019-03-23T05:57:00.388Z,10.78
2019-03-23T05:57:31.625Z,10.78
2019-03-23T05:58:02.859Z,10.78
2019-03-23T05:58:34.094Z,10.81
2019-03-23T05:59:05.315Z,10.89
2019-03-23T05:59:36.520Z,10.92
2019-03-23T06:00:07.734Z,10.87
2019-03-23T06:00:38.938Z,10.85
2019-03-23T06:01:10.154Z,10.82
2019-03-23T06:01:41.416Z,10.87
2019-03-23T06:02:12.629Z,10.87
2019-03-23T06:02:43.847Z,10.93
2019-03-23T06:03:15.107Z,10.93
2019-03-23T06:03:46.372Z,10.97
2019-03-23T06:04:17.576Z,11.00
2019-03-23T06:04:48.771Z,11.05
2019-03-23T06:05:20.038Z,11.06
2019-03-23T06:05:51.257Z,11.11
2019-03-23T06:06:22.465Z,11.14
2019-03-23T06:06:53.682Z,11.17
2019-03-23T06:07:24.891Z,11.24
2019-03-23T06:07:56.100Z,11.29
2019-03-23T06:08:27.332Z,11.37
2019-03-23T06:08:58.581Z,11.41
2019-03-23T06:09:29.796Z,11.52
2019-03-23T06:10:01.010Z,11.63
2019-03-23T06:10:32.227Z,11.71
2019-03-23T06:11:03.457Z,11.79
2019-03-23T06:11:34.720Z,11.84
2019-03-23T06:12:05.932Z,11.91
2019-03-23T06:12:37.141Z,12.00
2019-03-23T06:13:08.353Z,12.07
2019-03-23T06:13:39.575Z,12.06
2019-03-23T06:14:10.806Z,12.01
2019-03-23T06:14:42.059Z,12.00
2019-03-23T06:15:13.280Z,12.00
2019-03-23T06:15:44.506Z,11.97
2019-03-23T06:16:17.841Z,12.03
2019-03-23T06:16:48.656Z,12.02
2019-03-23T06:17:19.865Z,12.06
2019-03-23T06:17:51.071Z,12.14
2019-03-23T06:18:22.303Z,12.18
2019-03-23T06:18:53.502Z,12.24
2019-03-23T06:19:24.743Z,12.23
2019-03-23T06:19:55.974Z,12.16
2019-03-23T06:20:27.184Z,12.15
2019-03-23T06:20:58.395Z,12.10
2019-03-23T06:21:29.607Z,12.10
2019-03-23T06:22:00.820Z,12.17
2019-03-23T06:22:32.030Z,12.26
2019-03-23T06:23:03.289Z,12.33
2019-03-23T06:23:34.499Z,12.39
2019-03-23T06:24:05.708Z,12.41
2019-03-23T06:24:36.930Z,12.34
2019-03-23T06:25:08.177Z,12.33
2019-03-23T06:25:39.390Z,12.32
2019-03-23T06:26:10.629Z,12.32
2019-03-23T06:26:41.818Z,12.33
2019-03-23T06:27:13.039Z,12.35
2019-03-23T06:27:44.472Z,12.34
2019-03-23T06:28:15.678Z,12.34
2019-03-23T06:28:46.892Z,12.28
2019-03-23T06:29:18.122Z,12.15
2019-03-23T06:29:49.328Z,12.07
2019-03-23T06:30:20.538Z,12.00
2019-03-23T06:30:51.743Z,11.96
2019-03-23T06:31:22.946Z,11.95
2019-03-23T06:31:54.156Z,11.92
2019-03-23T06:32:25.369Z,11.86
2019-03-23T06:32:56.631Z,11.85
2019-03-23T06:33:27.862Z,11.84
2019-03-23T06:33:59.068Z,11.84
2019-03-23T06:34:30.286Z,11.82
2019-03-23T06:35:01.539Z,11.78
2019-03-23T06:35:32.753Z,11.72
2019-03-23T06:36:04.017Z,11.66
2019-03-23T06:36:35.233Z,11.63
2019-03-23T06:37:06.444Z,11.61
2019-03-23T06:37:37.652Z,11.58
2019-03-23T06:38:08.856Z,11.58
2019-03-23T06:38:40.060Z,11.62
2019-03-23T06:39:11.263Z,11.63
2019-03-23T06:39:42.495Z,11.65
2019-03-23T06:40:13.690Z,11.65
2019-03-23T06:40:44.903Z,11.63
2019-03-23T06:41:16.116Z,11.59
2019-03-23T06:41:47.375Z,11.66
2019-03-23T06:42:18.599Z,11.70
2019-03-23T06:42:59.333Z,11.74
2019-03-23T06:43:22.778Z,11.78
2019-03-23T06:43:54.012Z,11.70
2019-03-23T06:44:25.225Z,11.66
2019-03-23T06:44:56.438Z,11.71
2019-03-23T06:45:27.681Z,11.73
2019-03-23T06:45:58.882Z,11.77
2019-03-23T06:46:30.095Z,11.86
2019-03-23T06:47:01.299Z,11.87
2019-03-23T06:47:32.519Z,11.94
2019-03-23T06:48:03.727Z,11.92
2019-03-23T06:48:34.943Z,11.99
2019-03-23T06:49:06.178Z,12.10
2019-03-23T06:49:37.394Z,12.23
2019-03-23T06:50:08.601Z,12.37
2019-03-23T06:50:39.802Z,12.45
2019-03-23T06:51:11.009Z,12.48
2019-03-23T06:51:42.212Z,12.47
2019-03-23T06:52:13.424Z,12.48
2019-03-23T06:52:44.637Z,12.49
2019-03-23T06:53:15.846Z,12.48
2019-03-23T06:53:47.061Z,12.44